Aviation Digital Data Service (ADDS)

Output produced by METARs form (1037 UTC 29 March 2015)
found at http://aviationweather.gov/adds/metars/
 
KRWI 290529Z 2906/3006 35005KT P6SM SKC 
     FM292000 23005KT P6SM FEW250